Latest Weather Observations for Brisbane

IDQ60801

Issued at 9:32 am EST Friday 26 August 2016 (issued every 30 minutes, with the page automatically refreshed every 10 minutes)

About weather observations | Map of weather stations | Latest weather observations for QLD | Other Formats
Station Details ID: 040913 Name: BRISBANE Lat: -27.48 Lon: 153.04 Height: 8.13 m
Data from the previous 72 hours. | See also: Recent months at Brisbane
Date/Time
EST
Temp
°C
App
Temp
°C
Dew
Point
°C
Rel
Hum
%
Delta-T
°C
Wind Press
QNH
hPa
Press
MSL
hPa
Rain since
9am
mm
Dir  Spd
km/h
Gust
km/h
Spd
kts
Gust
kts
26/09:30am 16.3 13.5 5.3 48 5.2 SW 9 20 5 11 1017.5 1017.5 0.0
26/09:00am 15.5 13.5 6.2 54 4.5 WSW 6 17 3 9 1017.8 1017.8 0.0
26/08:30am 14.4 12.0 5.2 54 4.3 WSW 7 19 4 10 1017.9 1017.9 0.0
26/08:00am 13.3 11.6 5.9 61 3.5 SW 4 7 2 4 1018.0 1018.0 0.0
26/07:30am 12.1 10.0 5.9 66 2.9 SW 6 9 3 5 1017.9 1017.9 0.0
26/07:00am 10.8 9.5 6.0 72 2.2 SW 2 9 1 5 1017.5 1017.5 0.0
26/06:30am 9.6 8.3 6.0 78 1.7 SW 2 7 1 4 1017.3 1017.3 0.0
26/06:00am 9.3 7.9 5.5 77 1.7 SW 2 6 1 3 1016.9 1016.9 0.0
26/05:30am 9.9 8.5 5.5 74 2.0 WSW 2 7 1 4 1016.6 1016.6 0.0
26/05:00am 10.3 8.9 5.3 71 2.3 SW 2 7 1 4 1016.1 1016.1 0.0
26/04:30am 10.5 9.0 5.1 69 2.5 SW 2 7 1 4 1015.8 1015.8 0.0
26/04:00am 10.8 8.9 4.9 67 2.7 WSW 4 13 2 7 1015.5 1015.5 0.0
26/03:30am 11.2 9.3 5.1 66 2.8 WSW 4 9 2 5 1015.3 1015.3 0.0
26/03:00am 11.4 9.2 5.1 65 2.9 WSW 6 17 3 9 1015.3 1015.3 0.0
26/02:30am 11.5 9.0 4.9 64 3.0 WSW 7 11 4 6 1015.3 1015.3 0.0
26/02:00am 11.8 9.5 5.0 63 3.1 WSW 6 13 3 7 1015.4 1015.4 0.0
26/01:30am 12.3 9.8 4.8 60 3.4 WSW 7 15 4 8 1015.6 1015.6 0.0
26/01:00am 12.4 9.9 4.9 60 3.4 WSW 7 19 4 10 1015.5 1015.5 0.0
26/12:30am 12.6 9.7 4.8 59 3.6 WSW 9 20 5 11 1015.6 1015.6 0.0
26/12:00am 12.7 10.2 4.9 59 3.6 WSW 7 15 4 8 1015.8 1015.8 0.0
 
Date/Time
EST
Temp
°C
App
Temp
°C
Dew
Point
°C
Rel
Hum
%
Delta-T
°C
Wind Press
QNH
hPa
Press
MSL
hPa
Rain since
9am
mm
Dir  Spd
km/h
Gust
km/h
Spd
kts
Gust
kts
25/11:30pm 13.0 10.1 4.9 58 3.7 WSW 9 20 5 11 1015.7 1015.7 0.0
25/11:00pm 13.3 10.5 5.0 57 3.8 WSW 9 19 5 10 1015.8 1015.8 0.0
25/10:30pm 13.6 11.2 5.3 57 3.9 WSW 7 19 4 10 1015.9 1015.9 0.0
25/10:00pm 13.7 11.3 5.3 57 3.9 W 7 15 4 8 1015.9 1015.9 0.0
25/09:30pm 13.8 11.6 5.4 57 3.9 W 6 13 3 7 1015.9 1015.9 0.0
25/09:00pm 14.4 11.6 5.0 53 4.4 W 9 19 5 10 1015.8 1015.8 0.0
25/08:30pm 14.6 11.7 4.9 52 4.5 W 9 17 5 9 1015.5 1015.5 0.0
25/08:00pm 14.9 11.7 4.9 51 4.7 W 11 15 6 8 1015.1 1015.1 0.0
25/07:30pm 15.2 12.0 4.9 50 4.8 W 11 19 6 10 1014.9 1014.9 0.0
25/07:00pm 15.6 12.7 4.9 49 5.0 W 9 19 5 10 1014.6 1014.6 0.0
25/06:30pm 16.1 12.9 5.1 48 5.2 W 11 20 6 11 1014.0 1014.0 0.0
25/06:00pm 16.6 13.5 5.6 48 5.3 W 11 26 6 14 1013.4 1013.4 0.0
25/05:30pm 17.3 14.8 4.9 44 5.9 WNW 7 13 4 7 1012.9 1012.9 0.0
25/05:00pm 18.3 14.4 5.2 42 6.3 W 15 24 8 13 1012.2 1012.2 0.0
25/04:30pm 19.1 15.5 5.2 40 6.8 W 13 26 7 14 1011.8 1011.8 0.0
25/04:00pm 19.4 15.4 5.1 39 7.0 W 15 28 8 15 1011.2 1011.2 0.0
25/03:30pm 20.0 16.3 6.4 41 6.8 WNW 15 26 8 14 1010.8 1010.8 0.0
25/03:00pm 20.3 17.4 6.3 40 7.0 W 11 17 6 9 1010.6 1010.6 0.0
25/02:30pm 20.4 17.2 6.7 41 6.9 W 13 26 7 14 1010.5 1010.5 0.0
25/02:00pm 20.0 16.4 6.7 42 6.7 W 15 24 8 13 1010.3 1010.3 0.0
25/01:30pm 19.7 15.8 5.4 39 7.0 W 15 26 8 14 1010.5 1010.5 0.0
25/01:00pm 19.3 15.6 6.4 43 6.4 W 15 26 8 14 1010.4 1010.4 0.0
25/12:30pm 18.8 14.5 6.9 46 6.0 W 19 33 10 18 1010.4 1010.4 0.0
25/12:00pm 18.9 15.8 7.4 47 5.8 WSW 13 30 7 16 1011.0 1011.0 0.0
25/11:30am 18.1 13.8 6.9 48 5.6 W 19 35 10 19 1011.0 1011.0 0.0
25/11:00am 17.4 12.4 6.3 48 5.5 W 22 43 12 23 1011.1 1011.1 0.0
25/10:30am 17.3 13.7 6.8 50 5.2 WSW 15 26 8 14 1011.5 1011.5 0.0
25/10:00am 16.2 10.8 6.3 52 4.8 W 24 43 13 23 1011.5 1011.5 0.0
25/09:30am 15.9 10.9 6.3 53 4.7 WNW 22 37 12 20 1012.1 1012.1 0.0
25/09:00am 15.9 11.7 7.4 57 4.2 W 19 39 10 21 1011.6 1011.6 9.6
25/08:30am 15.7 11.9 7.5 58 4.1 W 17 32 9 17 1011.7 1011.7 9.6
25/08:00am 14.7 12.0 7.5 62 3.6 W 11 20 6 11 1011.6 1011.6 9.6
25/07:30am 14.7 11.9 8.4 66 3.2 W 13 24 7 13 1011.0 1011.0 9.6
25/07:00am 14.6 13.0 8.8 68 2.9 W 7 17 4 9 1011.1 1011.1 9.6
25/06:30am 14.7 12.9 9.3 70 2.8 WNW 9 19 5 10 1011.0 1011.0 9.6
25/06:00am 15.0 13.1 9.1 68 3.0 W 9 19 5 10 1009.8 1009.8 9.6
25/05:30am 15.4 14.2 9.5 68 3.0 WNW 6 13 3 7 1010.1 1010.1 9.6
25/05:00am 15.9 12.9 9.1 64 3.5 WNW 15 24 8 13 1009.7 1009.7 9.6
25/04:30am 16.1 13.5 9.5 65 3.4 WNW 13 20 7 11 1009.2 1009.2 9.6
25/04:00am 16.4 13.9 9.8 65 3.5 WNW 13 24 7 13 1008.0 1008.0 9.6
25/03:30am 16.8 13.7 10.4 66 3.4 WNW 17 30 9 16 1007.8 1007.8 9.6
25/03:00am 17.2 15.1 11.0 67 3.3 WNW 13 26 7 14 1008.3 1008.3 9.6
25/02:30am 17.4 15.5 11.9 70 3.0 WNW 13 26 7 14 1008.5 1008.5 9.6
25/02:00am 17.8 15.9 12.9 73 2.7 W 15 24 8 13 1006.8 1006.8 9.6
25/01:30am 18.3 16.6 13.6 74 2.7 W 15 28 8 15 1007.0 1007.0 9.6
25/01:00am 19.0 17.7 14.7 76 2.5 WNW 15 26 8 14 1007.2 1007.2 9.6
25/12:30am 17.0 18.4 15.5 91 0.9 W 2 13 1 7 1007.6 1007.6 9.6
25/12:00am 17.1 18.6 15.8 92 0.8 N 2 6 1 3 1007.5 1007.5 9.6
 
Date/Time
EST
Temp
°C
App
Temp
°C
Dew
Point
°C
Rel
Hum
%
Delta-T
°C
Wind Press
QNH
hPa
Press
MSL
hPa
Rain since
9am
mm
Dir  Spd
km/h
Gust
km/h
Spd
kts
Gust
kts
24/11:30pm 17.1 17.9 15.8 92 0.8 N 6 13 3 7 1007.3 1007.3 9.6
24/11:00pm 16.8 17.9 15.5 92 0.8 N 4 11 2 6 1007.1 1007.1 9.6
24/10:30pm 16.8 18.2 15.3 91 0.9 N 2 6 1 3 1007.0 1007.0 9.6
24/10:00pm 16.9 17.8 15.2 90 1.0 NNE 4 7 2 4 1007.1 1007.1 9.6
24/09:30pm 17.1 18.1 15.4 90 1.0 NW 4 6 2 3 1008.3 1008.3 9.6
24/09:00pm 17.0 18.1 15.5 91 0.9 NNW 4 7 2 4 1008.6 1008.6 9.6
24/08:30pm 17.0 17.5 15.5 91 0.9 WNW 7 13 4 7 1008.7 1008.7 9.6
24/08:00pm 16.6 17.8 15.0 90 0.9 N 2 6 1 3 1007.9 1007.9 9.6
24/07:30pm 16.6 17.2 15.3 92 0.8 NE 6 9 3 5 1007.0 1007.0 9.6
24/07:00pm 16.8 18.2 15.5 92 0.8 NE 2 6 1 3 1007.9 1007.9 9.6
24/06:30pm 16.8 17.8 15.3 91 0.9 NNE 4 9 2 5 1007.7 1007.7 9.6
24/06:00pm 16.8 18.0 14.8 88 1.2 ENE 2 4 1 2 1007.7 1007.7 9.6
24/05:30pm 16.9 18.0 14.7 87 1.3 W 2 4 1 2 1008.2 1008.2 9.2
24/05:00pm 17.1 17.8 14.6 85 1.4 S 4 7 2 4 1007.7 1007.7 9.2
24/04:30pm 17.1 18.0 15.1 88 1.2 S 4 7 2 4 1007.4 1007.4 9.2
24/04:00pm 17.0 17.6 15.2 89 1.0 SSW 6 9 3 5 1007.7 1007.7 9.2
24/03:30pm 16.9 17.7 14.9 88 1.2 SSW 4 11 2 6 1007.4 1007.4 9.2
24/03:00pm 17.1 17.6 15.1 88 1.2 SSW 6 13 3 7 1007.0 1007.0 8.8
24/02:30pm 17.1 18.1 15.4 90 1.0 SSW 4 13 2 7 1007.0 1007.0 8.8
24/02:00pm 17.1 17.9 15.8 92 0.8 SSW 6 11 3 6 1006.8 1006.8 8.6
24/01:30pm 16.8 17.3 15.5 92 0.8 SSW 7 15 4 8 1006.5 1006.5 8.4
24/01:00pm 16.7 17.1 15.2 91 0.9 SW 7 15 4 8 1006.6 1006.6 7.0
24/12:30pm 17.0 17.6 15.9 93 0.6 SSW 7 17 4 9 1006.4 1006.4 6.2
24/12:00pm 17.8 18.8 16.3 91 0.9 SW 6 13 3 7 1006.6 1006.6 2.6
24/11:30am 19.0 20.3 17.1 89 1.2 SW 6 13 3 7 1006.7 1006.7 0.0
24/11:00am 20.1 22.3 17.5 85 1.6 SW 2 6 1 3 1007.0 1007.0 0.0
24/10:30am 20.6 22.9 17.8 84 1.7 SSW 2 4 1 2 1007.6 1007.6 0.0
24/10:00am 21.6 24.4 18.8 84 1.8 NNW 2 6 1 3 1007.9 1007.9 0.0
24/09:30am 21.4 24.3 19.1 87 1.5 N 2 4 1 2 1008.3 1008.3 0.0
24/09:00am 21.1 24.1 19.2 89 1.2 N 2 4 1 2 1008.3 1008.3 1.0
24/08:30am 20.7 24.0 19.2 91 0.9 CALM 0 2 0 1 1008.4 1008.4 1.0
24/08:00am 20.4 23.7 19.1 92 0.8 CALM 0 0 0 0 1008.7 1008.7 1.0
24/07:30am 20.1 22.9 18.8 92 0.8 ENE 2 2 1 1 1008.7 1008.7 1.0
24/07:00am 19.9 23.0 18.7 93 0.8 CALM 0 0 0 0 1008.6 1008.6 1.0
24/06:30am 19.6 22.6 18.4 93 0.7 CALM 0 0 0 0 1008.6 1008.6 1.0
24/06:00am 19.4 21.9 18.2 93 0.7 NE 2 2 1 1 1008.3 1008.3 1.0
24/05:30am 19.4 21.9 18.2 93 0.7 ENE 2 6 1 3 1008.0 1008.0 1.0
24/05:00am 19.5 21.7 18.3 93 0.7 ENE 4 6 2 3 1008.0 1008.0 1.0
24/04:30am 19.5 22.4 18.2 92 0.8 CALM 0 2 0 1 1008.0 1008.0 1.0
24/04:00am 19.6 22.2 18.3 92 0.8 NE 2 9 1 5 1008.1 1008.1 0.8
24/03:30am 19.6 22.1 18.1 91 0.9 N 2 7 1 4 1008.6 1008.6 0.8
24/03:00am 19.6 21.8 18.3 92 0.8 NNE 4 9 2 5 1008.8 1008.8 0.6
24/02:30am 19.5 21.3 18.2 92 0.8 NNE 6 13 3 7 1009.2 1009.2 0.6
24/02:00am 19.5 20.6 18.0 91 0.9 NNE 9 15 5 8 1009.7 1009.7 0.6
24/01:30am 19.8 21.5 18.5 92 0.8 NNE 7 20 4 11 1010.2 1010.2 0.6
24/01:00am 19.9 21.6 18.6 92 0.8 NE 7 13 4 7 1010.1 1010.1 0.6
24/12:30am 20.3 22.2 19.0 92 0.8 NE 7 13 4 7 1010.6 1010.6 0.6
24/12:00am 20.5 22.7 19.2 92 0.8 NE 6 11 3 6 1011.0 1011.0 0.6
 
Date/Time
EST
Temp
°C
App
Temp
°C
Dew
Point
°C
Rel
Hum
%
Delta-T
°C
Wind Press
QNH
hPa
Press
MSL
hPa
Rain since
9am
mm
Dir  Spd
km/h
Gust
km/h
Spd
kts
Gust
kts
23/11:30pm 20.6 22.8 19.3 92 0.8 NNE 6 9 3 5 1011.5 1011.5 0.2
23/11:00pm 20.5 22.7 19.2 92 0.8 NNE 6 11 3 6 1011.6 1011.6 0.2
23/10:30pm 20.8 22.8 19.1 90 1.1 NE 7 17 4 9 1011.9 1011.9 0.0
23/10:00pm 21.1 23.0 19.0 88 1.3 NE 7 13 4 7 1012.4 1012.4 0.0
23/09:30pm 21.2 23.2 19.1 88 1.3 NE 7 17 4 9 1012.6 1012.6 0.0
23/09:00pm 21.4 23.5 19.0 86 1.5 ENE 6 11 3 6 1012.7 1012.7 0.0
23/08:30pm 21.3 23.2 18.5 84 1.8 ENE 6 13 3 7 1013.1 1013.1 0.0
23/08:00pm 21.4 23.6 18.4 83 1.9 ENE 4 9 2 5 1013.2 1013.2 0.0
23/07:30pm 21.3 23.1 18.3 83 1.9 NE 6 9 3 5 1013.1 1013.1 0.0
23/07:00pm 21.3 22.9 17.9 81 2.1 NE 6 9 3 5 1013.0 1013.0 0.0
23/06:30pm 21.6 23.1 17.6 78 2.5 NE 6 13 3 7 1013.0 1013.0 0.0
23/06:00pm 21.6 23.2 17.0 75 2.8 NE 4 9 2 5 1012.5 1012.5 0.0
23/05:30pm 21.9 22.8 16.2 70 3.4 NE 6 9 3 5 1012.4 1012.4 0.0
23/05:00pm 22.4 23.3 16.0 67 3.9 NE 6 11 3 6 1012.1 1012.1 0.0
23/04:30pm 22.9 23.6 16.0 65 4.2 NE 7 13 4 7 1011.8 1011.8 0.0
23/04:00pm 23.1 23.2 15.4 62 4.6 NE 9 20 5 11 1011.8 1011.8 0.0
23/03:30pm 24.3 24.3 15.2 57 5.5 NE 9 17 5 9 1011.5 1011.5 0.0
23/03:00pm 24.6 24.7 15.5 57 5.5 ENE 9 13 5 7 1011.3 1011.3 0.0
23/02:30pm 24.5 25.2 16.2 60 5.1 NE 7 15 4 8 1011.3 1011.3 0.0
23/02:00pm 23.4 23.7 16.0 63 4.5 ENE 9 15 5 8 1011.6 1011.6 0.0
23/01:30pm 23.6 23.5 15.9 62 4.7 ENE 11 17 6 9 1011.7 1011.7 0.0
23/01:00pm 25.2 25.7 14.9 52 6.2 E 6 9 3 5 1011.8 1011.8 0.0
23/12:30pm 24.7 24.9 14.2 52 6.2 SE 6 7 3 4 1012.4 1012.4 0.0
23/12:00pm 24.7 25.8 14.5 53 6.1 SSE 2 6 1 3 1013.0 1013.0 0.0
23/11:30am 25.6 27.0 15.3 53 6.2 S 2 6 1 3 1013.7 1013.7 0.0
23/11:00am 25.1 26.0 15.1 53 6.0 SSW 4 9 2 5 1014.1 1014.1 0.0
23/10:30am 22.9 23.3 14.7 60 4.9 SW 6 9 3 5 1014.5 1014.5 0.0
23/10:00am 23.6 23.9 14.9 58 5.2 NW 7 11 4 6 1014.3 1014.3 0.0

Other Formats:

Comma delimited format used in spreadsheet applications
http://www.bom.gov.au/fwo/IDQ60801/IDQ60801.94576.axf

JavaScript Object Notation format (JSON) in row-major order
http://www.bom.gov.au/fwo/IDQ60801/IDQ60801.94576.json